< < Back
Terminal Aerodrome Forecast


Current Version              Previous Versions:   1  2  3  4  5  6  7  8  9  

Terminal Aerodrome Forecast

899
FTUS44 KBMX 281725
TAFBHM
TAF
KBHM 281725Z 2818/2918 13005KT P6SM SCT100 BKN200
     FM290100 00000KT P6SM SCT250
     FM291500 33005KT P6SM FEW050=

Latest METAR

335
SAUS70 KWBC 290700 RRL
MTRBHM
METAR KBHM 290653Z 04003KT 10SM FEW250 21/19 A3012 RMK AO2 SLP192
T02060189


USA.gov is the U.S. government's official web portal to all federal, state and local government web resources and services.